Hauptseite
METAR-TAF:

METAR-TAF

Flughäfen :

Caracas, Venezuela

Flughafen Caracas

Breite: 10-36N, Länge: 066-59W, Höhe: 43 m

Beobachtung

Neuester Wetterbericht von vor 1 Stunde und 30 Minuten, um 20:00 UTC
Wind 5 kt aus Nord/Nordost
Temperatur 30°C
Luftfeuchtigkeit 55%
Luftdruck 1012 hPa
Sichtweite 10 km oder mehr
Aufgelockert bewölkt in der Höhe von 1600 ft

METAR: SVMI 292000Z 02005KT 9999 SCT016 30/20 Q1012

Zeit: 17:30 (21:30 UTC)

Prognose

Neuester Wetterbericht von vor 5 Stunden und 30 Minuten, um 16:00 UTC
Gültige Prognose vom 29 um 18 UTC bis 30 um 18 UTC
Wind 5 kt aus Ost
Sichtweite 10 km oder mehr
Aufgelockert bewölkt in der Höhe von 1600 ft
Übergehend zu
vom 29 um 18 UTC bis 29 um 22 UTC
Wind 12 kt aus Ost/Nordost
Leicht bewölkt in der Höhe von 2000 ft

TAF: SVMI 291600Z 2918/3018 10005KT 9999 SCT016 TX32/18Z TN26/09Z BECMG 2918/2922 07012KT FEW020

Wetterbeobachtungen und Prognosen von mehr als 4000 Flughäfen (METAR und TAF Bericht).

Die verfügbaren Stationen werden durch gelbe und rote Markierungen auf der Karte dargestellt.

Führen Sie die Maus auf sie, um den Namen der Station zu sehen.

Darauf klicken, um die Beobachtung von Wetterbeobachtungen und Prognosen zu sehen.

Um die Karte zu ändern : klicken Sie auf den grünen Tasten mit einem schwarzen Kreuz Zum Vergrößern, auf den grünen Button mit einem Gedankenstrich zu verkleinern, oder auf die grünen Pfeile für benachbarte Karten.


METAR-TAF: